Time;durP1;ratioP1;P1;durP2;ratioP2;P2;SDS_P1;SDS_P2;PMS_P1;PMS_P2;Temp;Humidity;BMP_temperature;BMP_pressure;BME280_temperature;BME280_humidity;BME280_pressure;Samples;Min_cycle;Max_cycle;Signal;HPM_P1;HPM_P2
2022/04/22 00:01:27;;;;;;;13.35;6.80;;;;;;;;;;6183129;23;20013;-82
2022/04/22 00:03:53;;;;;;;13.77;7.70;;;;;;;;;;6183170;23;20021;-82
2022/04/22 00:06:20;;;;;;;19.35;8.30;;;;;;;;;;6183305;23;20021;-82
2022/04/22 00:08:46;;;;;;;15.85;7.50;;;;;;;;;;6158572;23;20017;-82
2022/04/22 00:11:31;;;;;;;15.20;7.43;;;;;;;;;;6185060;23;20031;-82
2022/04/22 00:14:00;;;;;;;14.98;7.47;;;;;;;;;;6184971;23;20406;-82
2022/04/22 00:16:30;;;;;;;14.18;7.28;;;;;;;;;;6185104;23;20020;-82
2022/04/22 00:18:56;;;;;;;15.38;7.30;;;;;;;;;;6184814;23;20017;-82
2022/04/22 00:21:22;;;;;;;12.90;6.97;;;;;;;;;;6186769;23;20056;-82
2022/04/22 00:23:49;;;;;;;13.02;6.85;;;;;;;;;;6184861;23;20071;-82
2022/04/22 00:26:16;;;;;;;15.40;8.23;;;;;;;;;;6184991;23;20017;-82
2022/04/22 00:28:41;;;;;;;15.38;7.55;;;;;;;;;;6160032;23;20044;-82
2022/04/22 00:31:07;;;;;;;17.42;8.25;;;;;;;;;;6185067;23;20342;-82
2022/04/22 00:33:33;;;;;;;13.23;7.55;;;;;;;;;;6184839;23;20071;-82
2022/04/22 00:35:59;;;;;;;12.43;7.57;;;;;;;;;;6184913;23;20017;-82
2022/04/22 00:38:25;;;;;;;16.02;8.15;;;;;;;;;;6186832;23;20052;-82
2022/04/22 00:40:55;;;;;;;16.98;8.55;;;;;;;;;;6186025;23;20443;-82
2022/04/22 00:43:22;;;;;;;14.35;7.90;;;;;;;;;;6185506;23;20547;-82
2022/04/22 00:45:48;;;;;;;17.10;8.65;;;;;;;;;;6184857;23;20009;-82
2022/04/22 00:48:15;;;;;;;15.98;7.85;;;;;;;;;;6184804;23;20052;-82
2022/04/22 00:50:41;;;;;;;13.25;6.85;;;;;;;;;;6184528;23;20068;-82
2022/04/22 00:53:08;;;;;;;19.30;8.07;;;;;;;;;;6186652;23;20032;-82
2022/04/22 00:55:35;;;;;;;14.68;8.27;;;;;;;;;;6184560;23;20013;-81
2022/04/22 00:58:02;;;;;;;15.65;7.75;;;;;;;;;;6184775;23;20017;-81
2022/04/22 01:00:28;;;;;;;14.55;7.93;;;;;;;;;;6184304;23;20092;-82
2022/04/22 01:02:54;;;;;;;16.33;8.98;;;;;;;;;;6184744;23;20071;-82
2022/04/22 01:10:51;;;;;;;15.77;8.48;;;;;;;;;;6184310;23;20029;-82
2022/04/22 01:13:17;;;;;;;13.63;7.78;;;;;;;;;;6184668;23;20387;-82
2022/04/22 01:15:43;;;;;;;15.40;7.90;;;;;;;;;;6184829;23;20024;-82
2022/04/22 01:18:09;;;;;;;12.18;7.65;;;;;;;;;;6184588;23;20017;-82
2022/04/22 01:20:35;;;;;;;13.80;8.02;;;;;;;;;;6159226;23;20019;-82
2022/04/22 01:23:01;;;;;;;13.05;7.72;;;;;;;;;;6184593;23;20334;-82
2022/04/22 01:25:27;;;;;;;11.75;7.60;;;;;;;;;;6184395;23;20017;-82
2022/04/22 01:27:53;;;;;;;12.98;7.35;;;;;;;;;;6184618;23;20020;-81
2022/04/22 01:30:20;;;;;;;13.68;7.55;;;;;;;;;;6184117;23;20055;-82
2022/04/22 01:32:48;;;;;;;14.98;8.38;;;;;;;;;;6184246;23;20032;-82
2022/04/22 01:35:14;;;;;;;12.55;7.10;;;;;;;;;;6184239;23;20100;-82
2022/04/22 01:37:42;;;;;;;15.60;8.52;;;;;;;;;;6184843;23;20103;-82
2022/04/22 01:40:08;;;;;;;14.10;7.88;;;;;;;;;;6159089;23;20095;-82
2022/04/22 01:42:34;;;;;;;16.98;7.85;;;;;;;;;;6184452;23;20016;-82
2022/04/22 01:45:00;;;;;;;15.95;8.00;;;;;;;;;;6159303;23;20024;-82
2022/04/22 01:47:26;;;;;;;12.57;7.68;;;;;;;;;;6184260;23;20017;-82
2022/04/22 01:49:52;;;;;;;12.27;7.50;;;;;;;;;;6183938;23;20328;-82
2022/04/22 01:52:19;;;;;;;15.25;7.85;;;;;;;;;;6184297;23;20012;-81
2022/04/22 01:54:45;;;;;;;15.75;7.28;;;;;;;;;;6183952;23;20121;-82
2022/04/22 01:57:11;;;;;;;12.25;7.72;;;;;;;;;;6184242;23;20021;-82
2022/04/22 01:59:36;;;;;;;14.27;8.32;;;;;;;;;;6184200;23;20052;-82
2022/04/22 02:02:03;;;;;;;12.48;7.07;;;;;;;;;;6184110;23;20024;-82
2022/04/22 02:04:28;;;;;;;16.48;6.97;;;;;;;;;;6185613;23;20338;-82
2022/04/22 02:06:54;;;;;;;14.85;7.40;;;;;;;;;;6184020;23;20020;-82
2022/04/22 02:09:20;;;;;;;14.80;7.45;;;;;;;;;;6184081;23;20021;-83
2022/04/22 02:11:46;;;;;;;14.75;6.43;;;;;;;;;;6183665;23;20323;-82
2022/04/22 02:14:12;;;;;;;15.43;6.35;;;;;;;;;;6184010;23;20024;-82
2022/04/22 02:16:39;;;;;;;12.07;6.30;;;;;;;;;;6185522;23;20085;-81
2022/04/22 02:19:04;;;;;;;13.32;6.00;;;;;;;;;;6183967;23;20461;-82
2022/04/22 02:21:30;;;;;;;10.25;6.60;;;;;;;;;;6183472;23;20013;-82
2022/04/22 02:23:56;;;;;;;14.52;6.65;;;;;;;;;;6183823;23;20320;-82
2022/04/22 02:26:22;;;;;;;11.50;5.80;;;;;;;;;;6183578;23;20044;-82
2022/04/22 02:28:48;;;;;;;13.85;6.22;;;;;;;;;;6159036;23;20084;-82
2022/04/22 02:31:14;;;;;;;13.63;6.40;;;;;;;;;;6183180;23;20068;-82
2022/04/22 02:33:44;;;;;;;10.73;5.25;;;;;;;;;;6183581;23;20049;-82
2022/04/22 02:36:11;;;;;;;10.05;5.65;;;;;;;;;;6183497;23;20060;-81
2022/04/22 02:38:37;;;;;;;14.55;5.45;;;;;;;;;;6183850;23;20020;-82
2022/04/22 02:46:34;;;;;;;10.27;4.90;;;;;;;;;;6185280;23;20013;-82
2022/04/22 02:49:00;;;;;;;12.63;4.97;;;;;;;;;;6158818;23;20013;-82
2022/04/22 02:51:26;;;;;;;13.18;5.15;;;;;;;;;;6183461;23;20310;-82
2022/04/22 02:53:52;;;;;;;9.65;5.60;;;;;;;;;;6185436;23;20017;-82
2022/04/22 02:56:19;;;;;;;10.30;5.32;;;;;;;;;;6184840;23;20009;-82
2022/04/22 02:58:45;;;;;;;14.45;6.03;;;;;;;;;;6183549;23;20013;-82
2022/04/22 03:01:11;;;;;;;10.60;5.00;;;;;;;;;;6158352;23;20383;-82
2022/04/22 03:03:37;;;;;;;11.25;5.40;;;;;;;;;;6183468;23;20394;-82
2022/04/22 03:06:03;;;;;;;12.57;5.75;;;;;;;;;;6183329;23;20017;-81
2022/04/22 03:08:30;;;;;;;16.13;5.85;;;;;;;;;;6184999;23;20518;-82
2022/04/22 03:10:56;;;;;;;12.77;5.82;;;;;;;;;;6183261;23;20088;-82
2022/04/22 03:13:22;;;;;;;10.82;5.18;;;;;;;;;;6183465;23;20036;-82
2022/04/22 03:15:48;;;;;;;10.63;5.00;;;;;;;;;;6185076;23;20067;-82
2022/04/22 03:18:14;;;;;;;11.73;5.22;;;;;;;;;;6183435;23;20087;-82
2022/04/22 03:20:40;;;;;;;10.07;5.28;;;;;;;;;;6184562;23;20009;-82
2022/04/22 03:23:06;;;;;;;9.90;4.97;;;;;;;;;;6185291;23;20017;-82
2022/04/22 03:25:32;;;;;;;11.85;6.13;;;;;;;;;;6184779;23;20338;-82
2022/04/22 03:27:58;;;;;;;11.57;5.40;;;;;;;;;;6183426;23;20013;-82
2022/04/22 03:30:24;;;;;;;12.35;5.80;;;;;;;;;;6158364;23;20047;-82
2022/04/22 03:32:50;;;;;;;10.25;5.45;;;;;;;;;;6183263;23;20447;-82
2022/04/22 03:35:16;;;;;;;11.05;5.20;;;;;;;;;;6158566;23;20086;-82
2022/04/22 03:37:42;;;;;;;9.05;5.00;;;;;;;;;;6185025;23;20335;-83
2022/04/22 03:40:10;;;;;;;10.15;5.10;;;;;;;;;;6158371;23;20020;-82
2022/04/22 03:42:36;;;;;;;12.00;4.85;;;;;;;;;;6183181;23;20092;-82
2022/04/22 03:45:03;;;;;;;10.98;5.38;;;;;;;;;;6185198;23;20016;-82
2022/04/22 03:47:29;;;;;;;11.00;5.20;;;;;;;;;;6160259;23;20016;-82
2022/04/22 03:49:55;;;;;;;9.93;4.82;;;;;;;;;;6185288;23;20067;-82
2022/04/22 03:52:21;;;;;;;9.90;5.38;;;;;;;;;;6185021;23;20027;-82
2022/04/22 03:54:47;;;;;;;10.68;5.32;;;;;;;;;;6185201;23;20025;-82
2022/04/22 03:59:57;;;;;;;11.05;5.40;;;;;;;;;;6186627;23;20052;-82
2022/04/22 04:02:23;;;;;;;10.25;4.63;;;;;;;;;;6160093;23;20021;-82
2022/04/22 04:04:50;;;;;;;11.25;5.18;;;;;;;;;;6185115;23;20338;-82
2022/04/22 04:07:17;;;;;;;10.13;4.90;;;;;;;;;;6184845;23;20017;-82
2022/04/22 04:17:56;;;;;;;9.27;4.63;;;;;;;;;;6185186;23;20017;-82
2022/04/22 04:23:17;;;;;;;9.48;5.10;;;;;;;;;;6186868;23;20048;-82
2022/04/22 04:25:44;;;;;;;10.50;5.15;;;;;;;;;;6185027;23;20051;-82
2022/04/22 04:28:11;;;;;;;11.00;5.28;;;;;;;;;;6184866;23;20009;-82
2022/04/22 04:30:40;;;;;;;11.48;6.07;;;;;;;;;;6186389;23;20060;-82
2022/04/22 04:33:10;;;;;;;10.77;5.10;;;;;;;;;;6184528;23;20025;-83
2022/04/22 04:35:38;;;;;;;8.43;4.68;;;;;;;;;;6184968;23;20032;-82
2022/04/22 04:38:05;;;;;;;8.98;5.03;;;;;;;;;;6185014;23;20044;-82
2022/04/22 04:40:32;;;;;;;10.25;5.20;;;;;;;;;;6184687;23;20431;-82
2022/04/22 04:43:00;;;;;;;10.10;5.20;;;;;;;;;;6159876;23;20501;-82
2022/04/22 04:45:27;;;;;;;9.93;5.70;;;;;;;;;;6185028;23;20009;-82
2022/04/22 04:47:53;;;;;;;11.05;4.95;;;;;;;;;;6184949;23;20013;-82
2022/04/22 04:50:19;;;;;;;8.48;4.68;;;;;;;;;;6184704;23;20013;-82
2022/04/22 04:52:45;;;;;;;9.98;4.55;;;;;;;;;;6184505;23;20101;-82
2022/04/22 04:55:15;;;;;;;10.23;5.93;;;;;;;;;;6184498;23;20033;-82
2022/04/22 04:57:44;;;;;;;17.50;5.30;;;;;;;;;;6186510;23;20017;-83
2022/04/22 05:00:11;;;;;;;9.63;4.88;;;;;;;;;;6184627;23;20074;-82
2022/04/22 05:02:37;;;;;;;9.90;5.30;;;;;;;;;;6184451;23;20156;-83
2022/04/22 05:05:05;;;;;;;11.48;5.35;;;;;;;;;;6184652;23;20028;-82
2022/04/22 05:07:34;;;;;;;12.18;6.05;;;;;;;;;;6184372;23;20017;-83
2022/04/22 05:10:01;;;;;;;10.65;4.88;;;;;;;;;;6184548;23;20021;-83
2022/04/22 05:12:26;;;;;;;9.90;4.93;;;;;;;;;;6184712;23;20020;-83
2022/04/22 05:14:52;;;;;;;11.55;5.75;;;;;;;;;;6159834;23;20086;-83
2022/04/22 05:17:18;;;;;;;9.65;4.93;;;;;;;;;;6184301;23;20017;-83
2022/04/22 05:19:44;;;;;;;10.30;4.70;;;;;;;;;;6184303;23;20028;-83
2022/04/22 05:22:10;;;;;;;11.00;4.70;;;;;;;;;;6184624;23;20021;-82
2022/04/22 05:24:37;;;;;;;9.98;4.85;;;;;;;;;;6184495;23;20017;-82
2022/04/22 05:27:04;;;;;;;10.93;5.00;;;;;;;;;;6184283;23;20446;-83
2022/04/22 05:34:59;;;;;;;13.43;4.80;;;;;;;;;;6186311;23;20017;-83
2022/04/22 05:37:25;;;;;;;7.82;4.32;;;;;;;;;;6159323;23;20380;-83
2022/04/22 05:39:51;;;;;;;8.43;4.47;;;;;;;;;;6184226;23;20024;-83
2022/04/22 05:42:17;;;;;;;10.07;4.55;;;;;;;;;;6184015;23;20021;-83
2022/04/22 05:44:43;;;;;;;9.25;4.63;;;;;;;;;;6184287;23;20020;-83
2022/04/22 05:47:09;;;;;;;10.85;4.10;;;;;;;;;;6185785;23;20024;-83
2022/04/22 05:49:35;;;;;;;9.30;3.90;;;;;;;;;;6159373;23;20091;-83
2022/04/22 05:52:01;;;;;;;8.10;4.00;;;;;;;;;;6184352;23;20391;-82
2022/04/22 05:54:27;;;;;;;9.35;3.95;;;;;;;;;;6184073;23;20071;-82
2022/04/22 05:56:53;;;;;;;8.25;4.10;;;;;;;;;;6185849;23;20017;-83
2022/04/22 05:59:19;;;;;;;7.35;3.63;;;;;;;;;;6185763;23;20379;-83
2022/04/22 06:01:45;;;;;;;10.82;3.92;;;;;;;;;;6159108;23;20088;-83
2022/04/22 06:04:11;;;;;;;7.70;3.70;;;;;;;;;;6183847;23;20024;-83
2022/04/22 06:06:37;;;;;;;6.63;3.60;;;;;;;;;;6183636;23;20135;-83
2022/04/22 06:11:47;;;;;;;8.27;3.53;;;;;;;;;;6183342;23;20507;-82
2022/04/22 06:14:13;;;;;;;10.13;3.63;;;;;;;;;;6185172;23;20052;-83
2022/04/22 06:16:40;;;;;;;6.75;3.03;;;;;;;;;;6183757;23;20016;-83
2022/04/22 06:19:06;;;;;;;7.32;3.08;;;;;;;;;;6183242;23;20020;-83
2022/04/22 06:21:32;;;;;;;8.23;3.30;;;;;;;;;;6184824;23;20019;-83
2022/04/22 06:23:58;;;;;;;9.63;3.75;;;;;;;;;;6183321;23;20022;-83
2022/04/22 06:26:24;;;;;;;8.63;3.45;;;;;;;;;;6183547;23;20013;-83
2022/04/22 06:28:50;;;;;;;7.20;3.00;;;;;;;;;;6183053;23;20017;-84
2022/04/22 06:31:16;;;;;;;6.85;3.45;;;;;;;;;;6184104;23;20024;-83
2022/04/22 06:33:42;;;;;;;6.00;2.80;;;;;;;;;;6184725;23;20021;-83
2022/04/22 06:36:14;;;;;;;9.25;3.15;;;;;;;;;;6183717;23;20045;-83
2022/04/22 06:38:42;;;;;;;8.77;2.95;;;;;;;;;;6183133;23;20071;-84
2022/04/22 06:46:38;;;;;;;6.35;2.60;;;;;;;;;;6183239;23;20434;-83
2022/04/22 06:49:04;;;;;;;7.07;3.17;;;;;;;;;;6183044;23;20013;-82
2022/04/22 06:51:31;;;;;;;7.90;3.10;;;;;;;;;;6183147;23;20024;-83
2022/04/22 06:53:57;;;;;;;5.50;2.42;;;;;;;;;;6183031;23;20025;-83
2022/04/22 06:56:27;;;;;;;8.98;3.10;;;;;;;;;;6183410;23;20049;-84
2022/04/22 06:58:54;;;;;;;6.75;2.78;;;;;;;;;;6183534;23;20394;-83
2022/04/22 07:01:20;;;;;;;5.40;2.20;;;;;;;;;;6183131;23;20100;-84
2022/04/22 07:03:46;;;;;;;7.78;2.85;;;;;;;;;;6182972;23;20075;-83
2022/04/22 07:06:12;;;;;;;6.63;2.80;;;;;;;;;;6183197;23;20157;-83
2022/04/22 07:08:38;;;;;;;5.72;2.70;;;;;;;;;;6183616;23;20465;-83
2022/04/22 07:11:05;;;;;;;7.75;2.90;;;;;;;;;;6183178;23;20021;-83
2022/04/22 07:13:32;;;;;;;6.82;2.67;;;;;;;;;;6158336;23;20017;-83
2022/04/22 07:15:59;;;;;;;7.90;2.80;;;;;;;;;;6158751;23;20414;-82
2022/04/22 07:18:25;;;;;;;5.57;2.35;;;;;;;;;;6181019;23;20088;-82
2022/04/22 07:20:51;;;;;;;5.53;2.63;;;;;;;;;;6183236;23;20048;-84
2022/04/22 07:23:18;;;;;;;6.07;2.88;;;;;;;;;;6158469;23;20045;-84
2022/04/22 07:25:46;;;;;;;6.13;2.55;;;;;;;;;;6183437;23;20092;-84
2022/04/22 07:28:12;;;;;;;6.90;2.80;;;;;;;;;;6158366;23;20025;-83
2022/04/22 07:30:40;;;;;;;6.60;3.10;;;;;;;;;;6183187;23;20455;-84
2022/04/22 07:33:09;;;;;;;11.77;3.33;;;;;;;;;;6158026;23;20450;-83
2022/04/22 07:35:35;;;;;;;7.07;2.97;;;;;;;;;;6183389;23;20024;-84
2022/04/22 07:38:01;;;;;;;8.40;2.75;;;;;;;;;;6183117;23;20017;-84
2022/04/22 07:40:27;;;;;;;7.38;2.85;;;;;;;;;;6183272;23;20052;-84
2022/04/22 07:48:25;;;;;;;6.68;2.70;;;;;;;;;;6183108;23;20443;-83
2022/04/22 07:50:52;;;;;;;7.85;3.33;;;;;;;;;;6183247;23;20070;-83
2022/04/22 07:53:18;;;;;;;8.32;2.92;;;;;;;;;;6158199;23;20454;-84
2022/04/22 07:55:45;;;;;;;10.02;3.20;;;;;;;;;;6183385;23;20020;-84
2022/04/22 07:58:13;;;;;;;7.53;2.95;;;;;;;;;;6182994;23;20017;-84
2022/04/22 08:00:40;;;;;;;8.45;3.42;;;;;;;;;;6183089;23;20100;-83
2022/04/22 08:03:06;;;;;;;7.20;2.90;;;;;;;;;;6184820;23;20013;-84
2022/04/22 08:05:32;;;;;;;9.05;3.10;;;;;;;;;;6183203;23;20096;-83
2022/04/22 08:07:58;;;;;;;8.40;2.97;;;;;;;;;;6183306;23;20569;-84
2022/04/22 08:10:24;;;;;;;6.88;3.17;;;;;;;;;;6183335;23;20048;-89
2022/04/22 08:12:50;;;;;;;8.15;2.95;;;;;;;;;;6183180;23;20040;-83
2022/04/22 08:15:18;;;;;;;7.40;3.22;;;;;;;;;;6183002;23;20036;-82
2022/04/22 08:17:44;;;;;;;6.10;3.00;;;;;;;;;;6158391;23;20021;-84
2022/04/22 08:20:11;;;;;;;6.25;3.05;;;;;;;;;;6182806;23;20017;-84
2022/04/22 08:22:37;;;;;;;10.50;3.38;;;;;;;;;;6183216;23;20443;-83
2022/04/22 08:25:04;;;;;;;6.88;2.80;;;;;;;;;;6184766;23;20013;-83
2022/04/22 08:27:30;;;;;;;6.53;3.10;;;;;;;;;;6158374;23;20342;-83
2022/04/22 08:29:56;;;;;;;9.23;3.10;;;;;;;;;;6158319;23;20014;-84
2022/04/22 08:32:23;;;;;;;6.65;3.38;;;;;;;;;;6184780;23;20021;-83
2022/04/22 08:34:49;;;;;;;6.90;2.97;;;;;;;;;;6184682;23;20025;-83
2022/04/22 08:37:15;;;;;;;6.65;3.00;;;;;;;;;;6160107;23;20092;-84
2022/04/22 08:39:41;;;;;;;7.93;2.80;;;;;;;;;;6184544;23;20017;-84
2022/04/22 08:42:07;;;;;;;7.85;2.85;;;;;;;;;;6184938;23;20026;-83
2022/04/22 08:44:36;;;;;;;10.77;3.30;;;;;;;;;;6185093;23;20124;-82
2022/04/22 08:50:02;;;;;;;10.67;2.70;;;;;;;;;;6186026;23;20438;-83
2022/04/22 08:52:31;;;;;;;7.25;2.78;;;;;;;;;;6159998;23;20088;-83
2022/04/22 08:54:58;;;;;;;7.90;2.63;;;;;;;;;;6186386;23;20334;-84
2022/04/22 08:57:24;;;;;;;6.40;2.75;;;;;;;;;;6184765;23;20020;-84
2022/04/22 08:59:50;;;;;;;7.18;2.80;;;;;;;;;;6184269;23;20009;-82
2022/04/22 09:02:17;;;;;;;6.57;2.65;;;;;;;;;;6184736;23;20024;-84
2022/04/22 09:04:43;;;;;;;6.32;2.83;;;;;;;;;;6184449;23;20053;-84
2022/04/22 09:07:18;;;;;;;6.07;2.70;;;;;;;;;;6184658;23;20045;-84
2022/04/22 09:09:49;;;;;;;4.55;2.40;;;;;;;;;;6159590;23;20013;-83
2022/04/22 09:12:18;;;;;;;7.50;2.85;;;;;;;;;;6159897;23;20017;-83
2022/04/22 09:14:45;;;;;;;6.43;2.80;;;;;;;;;;6184319;23;20013;-83
2022/04/22 09:17:18;;;;;;;6.93;3.20;;;;;;;;;;6185011;23;20013;-83
2022/04/22 09:19:44;;;;;;;6.45;2.70;;;;;;;;;;6184231;23;20017;-83
2022/04/22 09:22:10;;;;;;;7.55;2.83;;;;;;;;;;6184841;23;20013;-83
2022/04/22 09:24:46;;;;;;;10.55;3.33;;;;;;;;;;6184244;23;20020;-83
2022/04/22 09:27:13;;;;;;;9.77;3.28;;;;;;;;;;6184574;23;20049;-84
2022/04/22 09:29:57;;;;;;;8.45;2.53;;;;;;;;;;6184121;23;20013;-83
2022/04/22 09:32:32;;;;;;;7.63;2.67;;;;;;;;;;6184368;23;20339;-84
2022/04/22 09:34:58;;;;;;;;;;;;;;;;;;6184735;23;20020;-83
2022/04/22 09:42:59;;;;;;;6.18;2.78;;;;;;;;;;6186112;23;20016;-82
2022/04/22 09:45:44;;;;;;;6.85;3.10;;;;;;;;;;6185890;23;20312;-83
2022/04/22 09:48:19;;;;;;;8.50;3.22;;;;;;;;;;6184359;23;20013;-84
2022/04/22 09:50:52;;;;;;;9.07;2.92;;;;;;;;;;6183801;23;20016;-83
2022/04/22 09:53:19;;;;;;;8.60;2.97;;;;;;;;;;6186021;23;20017;-82
2022/04/22 09:55:55;;;;;;;6.05;3.03;;;;;;;;;;6183933;23;20017;-83
2022/04/22 09:58:22;;;;;;;5.32;2.85;;;;;;;;;;6186012;23;20055;-83
2022/04/22 10:00:51;;;;;;;7.88;2.85;;;;;;;;;;6183964;23;20013;-82
2022/04/22 10:03:18;;;;;;;7.60;3.20;;;;;;;;;;6183988;23;20048;-83
2022/04/22 10:05:45;;;;;;;7.97;3.00;;;;;;;;;;6183870;23;20329;-84
2022/04/22 10:08:11;;;;;;;7.32;3.40;;;;;;;;;;6135145;23;20049;-84
2022/04/22 10:10:39;;;;;;;8.15;3.03;;;;;;;;;;6183738;23;20032;-82
2022/04/22 10:13:06;;;;;;;6.40;3.33;;;;;;;;;;6184081;23;20028;-83
2022/04/22 10:15:33;;;;;;;7.85;3.15;;;;;;;;;;6183720;23;20021;-83
2022/04/22 10:17:59;;;;;;;7.68;3.40;;;;;;;;;;6183943;23;20021;-83
2022/04/22 10:20:27;;;;;;;6.63;3.05;;;;;;;;;;6184149;23;20067;-83
2022/04/22 10:22:53;;;;;;;6.78;3.35;;;;;;;;;;6183919;23;20017;-84
2022/04/22 10:25:19;;;;;;;8.57;3.38;;;;;;;;;;6158786;23;20009;-83
2022/04/22 10:27:46;;;;;;;7.93;3.13;;;;;;;;;;6183781;23;20017;-83
2022/04/22 10:30:13;;;;;;;8.10;3.35;;;;;;;;;;6185298;23;20320;-84
2022/04/22 10:32:40;;;;;;;6.30;3.10;;;;;;;;;;6183598;23;20021;-84
2022/04/22 10:35:07;;;;;;;9.10;3.47;;;;;;;;;;6185549;23;20029;-82
2022/04/22 10:37:37;;;;;;;7.45;3.60;;;;;;;;;;6184186;23;20092;-83
2022/04/22 10:40:04;;;;;;;8.85;3.15;;;;;;;;;;6160546;23;20036;-83
2022/04/22 10:42:37;;;;;;;8.63;3.65;;;;;;;;;;6184022;23;20017;-83
2022/04/22 10:47:49;;;;;;;;;;;;;;;;;;6184300;23;20017;-82
2022/04/22 10:50:15;;;;;;;;;;;;;;;;;;6183807;23;19935;-83
2022/04/22 10:52:55;;;;;;;8.40;3.35;;;;;;;;;;6182389;23;19966;-81
2022/04/22 10:55:21;;;;;;;8.48;4.10;;;;;;;;;;6183433;23;20023;-83
2022/04/22 10:57:50;;;;;;;6.40;3.15;;;;;;;;;;6182580;23;20088;-82
2022/04/22 11:00:17;;;;;;;7.57;3.30;;;;;;;;;;6158322;23;20016;-83
2022/04/22 11:02:45;;;;;;;8.55;3.22;;;;;;;;;;6182394;23;20144;-82
2022/04/22 11:05:20;;;;;;;10.25;3.63;;;;;;;;;;6158642;23;20016;-82
2022/04/22 11:07:56;;;;;;;6.97;3.47;;;;;;;;;;6181276;23;20067;-83
2022/04/22 11:10:22;;;;;;;;;;;;;;;;;;6158969;23;20017;-83
2022/04/22 11:12:48;;;;;;;;;;;;;;;;;;6182545;23;19939;-82
2022/04/22 11:15:14;;;;;;;7.63;4.00;;;;;;;;;;6183361;23;20022;-83
2022/04/22 11:17:44;;;;;;;7.97;3.22;;;;;;;;;;6182491;23;20027;-82
2022/04/22 11:20:11;;;;;;;7.65;3.63;;;;;;;;;;6183018;23;20331;-84
2022/04/22 11:22:56;;;;;;;7.35;3.58;;;;;;;;;;6185354;23;20073;-82
2022/04/22 11:25:26;;;;;;;8.00;3.80;;;;;;;;;;6183228;23;20023;-83
2022/04/22 11:27:55;;;;;;;8.23;3.83;;;;;;;;;;6184982;23;20020;-82
2022/04/22 11:30:22;;;;;;;7.90;3.70;;;;;;;;;;6183226;23;20017;-81
2022/04/22 11:32:49;;;;;;;7.45;3.33;;;;;;;;;;6158477;23;20044;-82
2022/04/22 11:35:22;;;;;;;8.18;3.30;;;;;;;;;;6158909;23;20091;-83
2022/04/22 11:38:04;;;;;;;5.95;3.53;;;;;;;;;;6183937;23;20021;-82
2022/04/22 11:40:35;;;;;;;7.30;3.70;;;;;;;;;;6183067;23;20024;-81
2022/04/22 11:43:08;;;;;;;7.75;3.67;;;;;;;;;;6185319;23;20017;-82
2022/04/22 11:45:38;;;;;;;8.52;4.15;;;;;;;;;;6184712;23;20378;-82
2022/04/22 11:48:07;;;;;;;8.18;3.90;;;;;;;;;;6185324;23;20009;-82
2022/04/22 11:50:38;;;;;;;8.32;4.28;;;;;;;;;;6183097;23;20454;-82
2022/04/22 11:53:07;;;;;;;9.05;3.90;;;;;;;;;;6183298;23;20324;-81
2022/04/22 11:55:33;;;;;;;10.55;3.65;;;;;;;;;;6183089;23;20017;-82
2022/04/22 11:58:00;;;;;;;8.60;4.25;;;;;;;;;;6183377;23;20087;-82
2022/04/22 12:05:55;;;;;;;7.93;4.30;;;;;;;;;;6182991;23;20017;-82
2022/04/22 12:08:21;;;;;;;9.82;4.45;;;;;;;;;;6184825;23;20058;-83
2022/04/22 12:10:48;;;;;;;8.95;4.25;;;;;;;;;;6184475;23;20031;-82
2022/04/22 12:13:15;;;;;;;7.35;4.50;;;;;;;;;;6187133;23;20435;-81
2022/04/22 12:15:46;;;;;;;10.15;4.18;;;;;;;;;;6184936;23;20051;-82
2022/04/22 12:18:28;;;;;;;7.93;4.07;;;;;;;;;;6185121;23;20019;-82
2022/04/22 12:20:54;;;;;;;6.20;3.78;;;;;;;;;;6186563;23;20048;-82
2022/04/22 12:23:21;;;;;;;13.85;4.47;;;;;;;;;;6185053;23;20028;-83
2022/04/22 12:25:56;;;;;;;7.88;4.72;;;;;;;;;;6184905;23;20013;-82
2022/04/22 12:28:24;;;;;;;8.00;4.55;;;;;;;;;;6184992;23;20080;-84
2022/04/22 12:30:50;;;;;;;9.82;4.70;;;;;;;;;;6185090;23;20013;-82
2022/04/22 12:33:17;;;;;;;9.63;4.22;;;;;;;;;;6184683;23;20017;-82
2022/04/22 12:35:45;;;;;;;9.75;4.50;;;;;;;;;;6184821;23;20044;-83
2022/04/22 12:38:12;;;;;;;10.27;4.65;;;;;;;;;;6186885;23;20014;-83
2022/04/22 12:40:48;;;;;;;7.80;4.30;;;;;;;;;;6186233;23;20330;-83
2022/04/22 12:43:27;;;;;;;10.73;4.57;;;;;;;;;;6184704;23;20024;-82
2022/04/22 12:54:11;;;;;;;8.55;4.72;;;;;;;;;;6186644;23;20017;-83
2022/04/22 12:56:38;;;;;;;8.43;4.75;;;;;;;;;;6183120;23;20397;-83
2022/04/22 12:59:04;;;;;;;8.93;5.28;;;;;;;;;;6186530;23;20091;-82
2022/04/22 13:01:40;;;;;;;10.73;5.53;;;;;;;;;;6180793;23;20013;-82
2022/04/22 13:04:07;;;;;;;9.75;5.20;;;;;;;;;;6186521;23;20013;-83
2022/04/22 13:06:43;;;;;;;8.27;5.80;;;;;;;;;;6157933;23;20514;-82
2022/04/22 13:09:10;;;;;;;9.02;5.47;;;;;;;;;;6159757;23;20020;-84
2022/04/22 13:11:37;;;;;;;7.82;5.20;;;;;;;;;;6183804;23;20013;-83
2022/04/22 13:14:04;;;;;;;8.65;5.50;;;;;;;;;;6184842;23;20021;-82
2022/04/22 13:16:29;;;;;;;11.32;5.40;;;;;;;;;;6185345;23;20040;-83
2022/04/22 13:18:59;;;;;;;13.32;6.32;;;;;;;;;;6185366;23;20434;-82
2022/04/22 13:21:25;;;;;;;9.00;5.28;;;;;;;;;;6182509;23;20005;-84
2022/04/22 13:23:51;;;;;;;9.50;5.28;;;;;;;;;;6184238;23;20020;-84
2022/04/22 13:26:18;;;;;;;10.23;5.28;;;;;;;;;;6185532;23;20021;-82
2022/04/22 13:28:44;;;;;;;9.77;5.05;;;;;;;;;;6184073;23;20463;-83
2022/04/22 13:31:10;;;;;;;8.25;5.53;;;;;;;;;;6183860;23;20020;-83
2022/04/22 13:33:36;;;;;;;10.52;5.63;;;;;;;;;;6184027;23;20025;-82
2022/04/22 13:36:03;;;;;;;10.68;5.72;;;;;;;;;;6185758;23;20102;-83
2022/04/22 13:38:31;;;;;;;11.85;5.85;;;;;;;;;;6183870;23;20071;-82
2022/04/22 13:40:57;;;;;;;7.63;4.88;;;;;;;;;;6183961;23;20013;-83
2022/04/22 13:43:26;;;;;;;11.35;5.80;;;;;;;;;;6159189;23;20075;-84
2022/04/22 13:54:06;;;;;;;9.80;5.45;;;;;;;;;;6184169;23;20092;-86
2022/04/22 13:56:32;;;;;;;16.20;5.85;;;;;;;;;;6159066;23;20112;-84
2022/04/22 13:58:58;;;;;;;12.32;5.70;;;;;;;;;;6183832;23;20025;-86
2022/04/22 14:01:24;;;;;;;10.43;5.57;;;;;;;;;;6183850;23;20013;-85
2022/04/22 14:03:50;;;;;;;7.78;4.97;;;;;;;;;;6183904;23;20070;-84
2022/04/22 14:06:16;;;;;;;9.48;5.32;;;;;;;;;;6185786;23;20020;-86
2022/04/22 14:08:42;;;;;;;10.70;5.07;;;;;;;;;;6183792;23;20012;-85
2022/04/22 14:11:08;;;;;;;14.23;5.88;;;;;;;;;;6183856;23;20067;-85
2022/04/22 14:13:34;;;;;;;12.23;5.47;;;;;;;;;;6183622;23;20443;-86
2022/04/22 14:16:01;;;;;;;8.82;4.80;;;;;;;;;;6158783;23;20024;-86
2022/04/22 14:18:31;;;;;;;11.18;5.43;;;;;;;;;;6158664;23;20462;-86
2022/04/22 14:20:57;;;;;;;13.27;5.70;;;;;;;;;;6183583;23;20016;-87
2022/04/22 14:23:23;;;;;;;10.63;5.63;;;;;;;;;;6158678;23;20088;-89
2022/04/22 14:25:49;;;;;;;15.13;5.95;;;;;;;;;;6159035;23;20095;-88
2022/04/22 14:28:16;;;;;;;11.18;5.00;;;;;;;;;;6183244;23;20009;-88
2022/04/22 14:30:44;;;;;;;13.50;5.38;;;;;;;;;;6183787;23;20020;-87
2022/04/22 14:33:11;;;;;;;11.63;5.10;;;;;;;;;;6158914;23;20039;-90
2022/04/22 14:35:37;;;;;;;8.23;4.32;;;;;;;;;;6182880;23;20421;-86
2022/04/22 14:38:03;;;;;;;12.48;4.90;;;;;;;;;;6158573;23;20013;-92
2022/04/22 14:40:29;;;;;;;13.18;5.30;;;;;;;;;;6158318;23;20017;-86
2022/04/22 14:42:55;;;;;;;19.08;5.97;;;;;;;;;;6182426;23;20024;-85
2022/04/22 14:45:21;;;;;;;8.68;4.82;;;;;;;;;;6183550;23;20016;-87
2022/04/22 14:47:47;;;;;;;10.13;4.82;;;;;;;;;;6158857;23;20055;-88
2022/04/22 14:50:14;;;;;;;10.35;4.82;;;;;;;;;;6158712;23;20052;-87
2022/04/22 14:52:40;;;;;;;9.43;5.22;;;;;;;;;;6183352;23;20079;-87
2022/04/22 14:55:06;;;;;;;10.20;4.80;;;;;;;;;;6183579;23;20446;-86
2022/04/22 14:57:33;;;;;;;8.45;4.70;;;;;;;;;;6158572;23;20017;-86
2022/04/22 14:59:59;;;;;;;11.40;5.10;;;;;;;;;;6183723;23;20451;-86
2022/04/22 15:02:25;;;;;;;8.93;5.05;;;;;;;;;;6158903;23;20075;-92
2022/04/22 15:04:52;;;;;;;10.05;4.80;;;;;;;;;;6160245;23;20009;-89
2022/04/22 15:07:21;;;;;;;9.32;4.80;;;;;;;;;;6183448;23;20470;-89
2022/04/22 15:09:47;;;;;;;9.20;4.85;;;;;;;;;;6183564;23;20024;-87
2022/04/22 15:12:13;;;;;;;8.57;4.53;;;;;;;;;;6183595;23;20013;-87
2022/04/22 15:14:40;;;;;;;10.48;4.68;;;;;;;;;;6181795;23;20382;-88
2022/04/22 15:17:06;;;;;;;7.63;4.65;;;;;;;;;;6185717;23;20048;-89
2022/04/22 15:25:01;;;;;;;9.25;4.30;;;;;;;;;;6181724;23;20017;-86
2022/04/22 15:27:30;;;;;;;10.68;3.88;;;;;;;;;;6183303;23;20031;-87
2022/04/22 15:29:57;;;;;;;7.97;4.05;;;;;;;;;;6157051;23;20474;-86
2022/04/22 15:32:23;;;;;;;9.38;4.45;;;;;;;;;;6158330;23;20017;-86
2022/04/22 15:34:49;;;;;;;8.13;4.00;;;;;;;;;;6183494;23;20120;-86
2022/04/22 15:37:15;;;;;;;10.20;4.10;;;;;;;;;;6183405;23;20087;-87
2022/04/22 15:39:41;;;;;;;7.85;4.00;;;;;;;;;;6157802;23;20013;-87
2022/04/22 15:42:07;;;;;;;9.68;4.28;;;;;;;;;;6185317;23;20020;-85
2022/04/22 15:44:33;;;;;;;7.05;4.22;;;;;;;;;;6183659;23;20084;-86
2022/04/22 15:47:00;;;;;;;9.65;4.57;;;;;;;;;;6185380;23;20326;-86
2022/04/22 15:49:26;;;;;;;7.15;4.05;;;;;;;;;;6184019;23;20505;-86
2022/04/22 15:51:54;;;;;;;6.82;3.60;;;;;;;;;;6160312;23;20013;-86
2022/04/22 15:54:20;;;;;;;10.75;4.00;;;;;;;;;;6185144;23;20024;-86
2022/04/22 15:56:46;;;;;;;9.30;4.15;;;;;;;;;;6184147;23;20342;-86
2022/04/22 15:59:13;;;;;;;8.15;4.15;;;;;;;;;;6160116;23;20455;-87
2022/04/22 16:01:41;;;;;;;8.35;4.60;;;;;;;;;;6185033;23;20343;-85